sensor_id;sensor_type;location;lat;lon;timestamp;P1;durP1;ratioP1;P2;durP2;ratioP2
58354;SDS011;44160;49.080;19.302;2022-12-24T00:00:06;70.32;;;34.30;;
58354;SDS011;44160;49.080;19.302;2022-12-24T00:02:32;69.82;;;33.17;;
58354;SDS011;44160;49.080;19.302;2022-12-24T00:04:58;63.13;;;31.95;;
58354;SDS011;44160;49.080;19.302;2022-12-24T00:07:24;64.03;;;30.52;;
58354;SDS011;44160;49.080;19.302;2022-12-24T00:09:50;56.67;;;29.40;;
58354;SDS011;44160;49.080;19.302;2022-12-24T00:12:16;55.03;;;30.55;;
58354;SDS011;44160;49.080;19.302;2022-12-24T00:14:42;58.25;;;30.63;;
58354;SDS011;44160;49.080;19.302;2022-12-24T00:17:08;56.28;;;28.38;;
58354;SDS011;44160;49.080;19.302;2022-12-24T00:19:34;64.10;;;32.08;;
58354;SDS011;44160;49.080;19.302;2022-12-24T00:22:00;74.13;;;35.88;;
58354;SDS011;44160;49.080;19.302;2022-12-24T00:24:28;75.40;;;35.72;;
58354;SDS011;44160;49.080;19.302;2022-12-24T00:26:54;64.43;;;31.05;;
58354;SDS011;44160;49.080;19.302;2022-12-24T00:29:20;65.32;;;33.03;;
58354;SDS011;44160;49.080;19.302;2022-12-24T00:31:46;60.92;;;30.42;;
58354;SDS011;44160;49.080;19.302;2022-12-24T00:34:12;57.95;;;29.05;;
58354;SDS011;44160;49.080;19.302;2022-12-24T00:36:38;56.97;;;29.33;;
58354;SDS011;44160;49.080;19.302;2022-12-24T00:39:04;55.90;;;27.40;;
58354;SDS011;44160;49.080;19.302;2022-12-24T00:41:30;50.00;;;27.15;;
58354;SDS011;44160;49.080;19.302;2022-12-24T00:44:00;52.80;;;27.50;;
58354;SDS011;44160;49.080;19.302;2022-12-24T00:46:27;58.08;;;30.02;;
58354;SDS011;44160;49.080;19.302;2022-12-24T00:48:53;59.38;;;31.25;;
58354;SDS011;44160;49.080;19.302;2022-12-24T00:51:20;54.60;;;27.15;;
58354;SDS011;44160;49.080;19.302;2022-12-24T00:53:46;63.67;;;29.33;;
58354;SDS011;44160;49.080;19.302;2022-12-24T00:56:12;71.65;;;33.72;;
58354;SDS011;44160;49.080;19.302;2022-12-24T00:58:38;57.92;;;28.85;;
58354;SDS011;44160;49.080;19.302;2022-12-24T01:01:04;122.43;;;56.65;;
58354;SDS011;44160;49.080;19.302;2022-12-24T01:03:31;52.88;;;31.30;;
58354;SDS011;44160;49.080;19.302;2022-12-24T01:06:04;42.30;;;22.33;;
58354;SDS011;44160;49.080;19.302;2022-12-24T01:08:30;37.08;;;19.40;;
58354;SDS011;44160;49.080;19.302;2022-12-24T01:10:56;38.58;;;20.30;;
58354;SDS011;44160;49.080;19.302;2022-12-24T01:13:22;35.58;;;19.27;;
58354;SDS011;44160;49.080;19.302;2022-12-24T01:15:48;35.25;;;20.15;;
58354;SDS011;44160;49.080;19.302;2022-12-24T01:18:15;34.65;;;19.15;;
58354;SDS011;44160;49.080;19.302;2022-12-24T01:20:41;32.08;;;17.95;;
58354;SDS011;44160;49.080;19.302;2022-12-24T01:23:07;34.35;;;17.33;;
58354;SDS011;44160;49.080;19.302;2022-12-24T01:25:33;36.58;;;19.02;;
58354;SDS011;44160;49.080;19.302;2022-12-24T01:27:59;32.03;;;17.05;;
58354;SDS011;44160;49.080;19.302;2022-12-24T01:30:25;26.42;;;16.35;;
58354;SDS011;44160;49.080;19.302;2022-12-24T01:32:51;31.80;;;16.55;;
58354;SDS011;44160;49.080;19.302;2022-12-24T01:35:17;26.35;;;16.50;;
58354;SDS011;44160;49.080;19.302;2022-12-24T01:37:43;27.45;;;15.80;;
58354;SDS011;44160;49.080;19.302;2022-12-24T01:40:11;27.40;;;14.98;;
58354;SDS011;44160;49.080;19.302;2022-12-24T01:42:58;28.88;;;15.25;;
58354;SDS011;44160;49.080;19.302;2022-12-24T01:48:13;36.50;;;19.13;;
58354;SDS011;44160;49.080;19.302;2022-12-24T01:50:41;28.15;;;14.60;;
58354;SDS011;44160;49.080;19.302;2022-12-24T01:53:07;24.08;;;13.80;;
58354;SDS011;44160;49.080;19.302;2022-12-24T01:55:33;25.05;;;14.38;;
58354;SDS011;44160;49.080;19.302;2022-12-24T01:57:59;26.40;;;15.18;;
58354;SDS011;44160;49.080;19.302;2022-12-24T02:00:28;25.65;;;14.15;;
58354;SDS011;44160;49.080;19.302;2022-12-24T02:02:54;25.27;;;14.93;;
58354;SDS011;44160;49.080;19.302;2022-12-24T02:07:46;24.85;;;13.80;;
58354;SDS011;44160;49.080;19.302;2022-12-24T02:10:13;32.92;;;15.90;;
58354;SDS011;44160;49.080;19.302;2022-12-24T02:12:39;28.65;;;14.85;;
58354;SDS011;44160;49.080;19.302;2022-12-24T02:15:07;27.77;;;15.10;;
58354;SDS011;44160;49.080;19.302;2022-12-24T02:30:22;40.42;;;20.88;;
58354;SDS011;44160;49.080;19.302;2022-12-24T02:35:18;162.15;;;78.80;;
58354;SDS011;44160;49.080;19.302;2022-12-24T02:37:47;57.65;;;33.40;;
58354;SDS011;44160;49.080;19.302;2022-12-24T02:40:21;53.30;;;28.40;;
58354;SDS011;44160;49.080;19.302;2022-12-24T02:42:50;39.55;;;22.10;;
58354;SDS011;44160;49.080;19.302;2022-12-24T02:45:19;38.85;;;21.15;;
58354;SDS011;44160;49.080;19.302;2022-12-24T02:47:46;60.88;;;28.30;;
58354;SDS011;44160;49.080;19.302;2022-12-24T02:50:14;34.10;;;20.42;;
58354;SDS011;44160;49.080;19.302;2022-12-24T02:52:41;37.78;;;21.77;;
58354;SDS011;44160;49.080;19.302;2022-12-24T02:55:11;41.03;;;22.85;;
58354;SDS011;44160;49.080;19.302;2022-12-24T02:58:00;52.08;;;27.10;;
58354;SDS011;44160;49.080;19.302;2022-12-24T03:00:40;46.80;;;25.73;;
58354;SDS011;44160;49.080;19.302;2022-12-24T03:05:44;57.53;;;28.50;;
58354;SDS011;44160;49.080;19.302;2022-12-24T03:08:26;42.85;;;25.33;;
58354;SDS011;44160;49.080;19.302;2022-12-24T03:11:00;41.03;;;21.45;;
58354;SDS011;44160;49.080;19.302;2022-12-24T03:13:27;42.53;;;23.13;;
58354;SDS011;44160;49.080;19.302;2022-12-24T03:15:54;40.78;;;23.70;;
58354;SDS011;44160;49.080;19.302;2022-12-24T03:18:21;37.85;;;21.42;;
58354;SDS011;44160;49.080;19.302;2022-12-24T03:21:04;40.17;;;22.30;;
58354;SDS011;44160;49.080;19.302;2022-12-24T03:23:31;37.75;;;21.45;;
58354;SDS011;44160;49.080;19.302;2022-12-24T03:25:57;44.08;;;25.20;;
58354;SDS011;44160;49.080;19.302;2022-12-24T03:28:25;45.17;;;24.85;;
58354;SDS011;44160;49.080;19.302;2022-12-24T03:30:51;40.33;;;24.58;;
58354;SDS011;44160;49.080;19.302;2022-12-24T03:33:18;39.85;;;22.83;;
58354;SDS011;44160;49.080;19.302;2022-12-24T03:35:44;40.28;;;21.23;;
58354;SDS011;44160;49.080;19.302;2022-12-24T03:38:10;44.40;;;22.83;;
58354;SDS011;44160;49.080;19.302;2022-12-24T03:40:36;40.95;;;20.70;;
58354;SDS011;44160;49.080;19.302;2022-12-24T03:43:02;42.17;;;22.20;;
58354;SDS011;44160;49.080;19.302;2022-12-24T03:45:28;37.15;;;20.75;;
58354;SDS011;44160;49.080;19.302;2022-12-24T03:47:54;39.42;;;22.90;;
58354;SDS011;44160;49.080;19.302;2022-12-24T03:50:20;37.78;;;20.90;;
58354;SDS011;44160;49.080;19.302;2022-12-24T03:52:46;37.22;;;20.55;;
58354;SDS011;44160;49.080;19.302;2022-12-24T03:55:12;36.17;;;21.73;;
58354;SDS011;44160;49.080;19.302;2022-12-24T03:57:38;42.25;;;22.40;;
58354;SDS011;44160;49.080;19.302;2022-12-24T04:00:05;34.53;;;20.40;;
58354;SDS011;44160;49.080;19.302;2022-12-24T04:02:31;33.22;;;19.23;;
58354;SDS011;44160;49.080;19.302;2022-12-24T04:04:57;31.27;;;18.27;;
58354;SDS011;44160;49.080;19.302;2022-12-24T04:07:23;32.25;;;18.80;;
58354;SDS011;44160;49.080;19.302;2022-12-24T04:09:49;33.35;;;19.17;;
58354;SDS011;44160;49.080;19.302;2022-12-24T04:12:15;28.58;;;17.38;;
58354;SDS011;44160;49.080;19.302;2022-12-24T04:14:41;27.65;;;16.90;;
58354;SDS011;44160;49.080;19.302;2022-12-24T04:17:07;23.00;;;13.45;;
58354;SDS011;44160;49.080;19.302;2022-12-24T04:19:33;23.67;;;12.80;;
58354;SDS011;44160;49.080;19.302;2022-12-24T04:21:59;23.48;;;12.70;;
58354;SDS011;44160;49.080;19.302;2022-12-24T04:24:25;19.45;;;11.75;;
58354;SDS011;44160;49.080;19.302;2022-12-24T04:26:51;18.95;;;11.73;;
58354;SDS011;44160;49.080;19.302;2022-12-24T04:29:17;21.80;;;12.25;;
58354;SDS011;44160;49.080;19.302;2022-12-24T04:31:43;18.02;;;11.48;;
58354;SDS011;44160;49.080;19.302;2022-12-24T04:34:10;22.02;;;13.05;;
58354;SDS011;44160;49.080;19.302;2022-12-24T04:36:36;22.77;;;13.10;;
58354;SDS011;44160;49.080;19.302;2022-12-24T04:39:02;27.60;;;14.77;;
58354;SDS011;44160;49.080;19.302;2022-12-24T04:41:28;23.27;;;14.10;;
58354;SDS011;44160;49.080;19.302;2022-12-24T04:43:54;25.23;;;15.85;;
58354;SDS011;44160;49.080;19.302;2022-12-24T04:46:21;34.50;;;17.77;;
58354;SDS011;44160;49.080;19.302;2022-12-24T04:48:48;27.55;;;16.70;;
58354;SDS011;44160;49.080;19.302;2022-12-24T04:51:16;31.98;;;18.15;;
58354;SDS011;44160;49.080;19.302;2022-12-24T04:53:42;31.75;;;19.33;;
58354;SDS011;44160;49.080;19.302;2022-12-24T04:56:12;32.88;;;18.88;;
58354;SDS011;44160;49.080;19.302;2022-12-24T04:58:39;35.75;;;20.10;;
58354;SDS011;44160;49.080;19.302;2022-12-24T05:01:06;42.22;;;22.13;;
58354;SDS011;44160;49.080;19.302;2022-12-24T05:03:32;43.88;;;24.20;;
58354;SDS011;44160;49.080;19.302;2022-12-24T05:06:06;40.70;;;24.20;;
58354;SDS011;44160;49.080;19.302;2022-12-24T05:08:32;47.97;;;25.77;;
58354;SDS011;44160;49.080;19.302;2022-12-24T05:10:59;41.95;;;23.95;;
58354;SDS011;44160;49.080;19.302;2022-12-24T05:13:26;43.45;;;25.20;;
58354;SDS011;44160;49.080;19.302;2022-12-24T05:15:52;38.40;;;23.02;;
58354;SDS011;44160;49.080;19.302;2022-12-24T05:18:18;47.05;;;24.83;;
58354;SDS011;44160;49.080;19.302;2022-12-24T05:20:45;43.88;;;24.38;;
58354;SDS011;44160;49.080;19.302;2022-12-24T05:23:19;50.45;;;25.20;;
58354;SDS011;44160;49.080;19.302;2022-12-24T05:26:04;45.00;;;25.35;;
58354;SDS011;44160;49.080;19.302;2022-12-24T05:31:12;38.22;;;22.90;;
58354;SDS011;44160;49.080;19.302;2022-12-24T05:33:38;47.83;;;25.50;;
58354;SDS011;44160;49.080;19.302;2022-12-24T05:36:04;45.88;;;25.30;;
58354;SDS011;44160;49.080;19.302;2022-12-24T05:38:30;48.40;;;26.10;;
58354;SDS011;44160;49.080;19.302;2022-12-24T05:40:56;44.03;;;25.60;;
58354;SDS011;44160;49.080;19.302;2022-12-24T05:43:22;46.00;;;26.25;;
58354;SDS011;44160;49.080;19.302;2022-12-24T05:45:48;40.47;;;23.42;;
58354;SDS011;44160;49.080;19.302;2022-12-24T05:48:14;46.67;;;24.60;;
58354;SDS011;44160;49.080;19.302;2022-12-24T05:50:40;40.85;;;23.30;;
58354;SDS011;44160;49.080;19.302;2022-12-24T05:53:06;36.78;;;22.83;;
58354;SDS011;44160;49.080;19.302;2022-12-24T05:55:32;42.00;;;22.73;;
58354;SDS011;44160;49.080;19.302;2022-12-24T05:57:58;40.25;;;21.67;;
58354;SDS011;44160;49.080;19.302;2022-12-24T06:00:24;41.03;;;22.20;;
58354;SDS011;44160;49.080;19.302;2022-12-24T06:02:50;42.67;;;23.08;;
58354;SDS011;44160;49.080;19.302;2022-12-24T06:05:17;39.03;;;21.02;;
58354;SDS011;44160;49.080;19.302;2022-12-24T06:07:43;40.05;;;22.25;;
58354;SDS011;44160;49.080;19.302;2022-12-24T06:10:09;40.47;;;22.60;;
58354;SDS011;44160;49.080;19.302;2022-12-24T06:12:35;38.78;;;22.10;;
58354;SDS011;44160;49.080;19.302;2022-12-24T06:15:01;41.17;;;22.70;;
58354;SDS011;44160;49.080;19.302;2022-12-24T06:17:27;47.50;;;29.05;;
58354;SDS011;44160;49.080;19.302;2022-12-24T06:19:53;38.90;;;23.13;;
58354;SDS011;44160;49.080;19.302;2022-12-24T06:22:19;38.20;;;21.30;;
58354;SDS011;44160;49.080;19.302;2022-12-24T06:24:45;41.28;;;23.83;;
58354;SDS011;44160;49.080;19.302;2022-12-24T06:27:11;38.83;;;22.58;;
58354;SDS011;44160;49.080;19.302;2022-12-24T06:29:37;34.95;;;19.85;;
58354;SDS011;44160;49.080;19.302;2022-12-24T06:32:03;36.85;;;20.42;;
58354;SDS011;44160;49.080;19.302;2022-12-24T06:34:29;34.70;;;20.45;;
58354;SDS011;44160;49.080;19.302;2022-12-24T06:36:55;35.17;;;20.20;;
58354;SDS011;44160;49.080;19.302;2022-12-24T06:39:21;32.20;;;20.25;;
58354;SDS011;44160;49.080;19.302;2022-12-24T06:41:47;36.10;;;20.75;;
58354;SDS011;44160;49.080;19.302;2022-12-24T06:44:13;40.55;;;22.90;;
58354;SDS011;44160;49.080;19.302;2022-12-24T06:46:39;41.00;;;25.08;;
58354;SDS011;44160;49.080;19.302;2022-12-24T06:49:05;40.90;;;25.73;;
58354;SDS011;44160;49.080;19.302;2022-12-24T06:51:31;40.67;;;26.05;;
58354;SDS011;44160;49.080;19.302;2022-12-24T06:53:57;44.45;;;26.38;;
58354;SDS011;44160;49.080;19.302;2022-12-24T06:56:23;45.75;;;30.33;;
58354;SDS011;44160;49.080;19.302;2022-12-24T06:58:49;49.83;;;29.60;;
58354;SDS011;44160;49.080;19.302;2022-12-24T07:01:16;37.50;;;25.45;;
58354;SDS011;44160;49.080;19.302;2022-12-24T07:03:43;48.45;;;28.58;;
58354;SDS011;44160;49.080;19.302;2022-12-24T07:06:14;48.13;;;30.92;;
58354;SDS011;44160;49.080;19.302;2022-12-24T07:08:42;45.88;;;29.45;;
58354;SDS011;44160;49.080;19.302;2022-12-24T07:11:08;44.40;;;29.23;;
58354;SDS011;44160;49.080;19.302;2022-12-24T07:13:34;42.45;;;28.15;;
58354;SDS011;44160;49.080;19.302;2022-12-24T07:16:00;41.80;;;26.75;;
58354;SDS011;44160;49.080;19.302;2022-12-24T07:18:27;40.47;;;26.05;;
58354;SDS011;44160;49.080;19.302;2022-12-24T07:20:53;42.63;;;26.15;;
58354;SDS011;44160;49.080;19.302;2022-12-24T07:23:19;39.58;;;24.88;;
58354;SDS011;44160;49.080;19.302;2022-12-24T07:25:45;32.47;;;22.02;;
58354;SDS011;44160;49.080;19.302;2022-12-24T07:28:11;33.80;;;23.17;;
58354;SDS011;44160;49.080;19.302;2022-12-24T07:30:37;34.05;;;22.30;;
58354;SDS011;44160;49.080;19.302;2022-12-24T07:33:04;22.85;;;14.55;;
58354;SDS011;44160;49.080;19.302;2022-12-24T07:35:30;23.42;;;15.60;;
58354;SDS011;44160;49.080;19.302;2022-12-24T07:37:56;23.70;;;15.32;;
58354;SDS011;44160;49.080;19.302;2022-12-24T07:40:22;21.20;;;14.32;;
58354;SDS011;44160;49.080;19.302;2022-12-24T07:42:48;17.23;;;11.00;;
58354;SDS011;44160;49.080;19.302;2022-12-24T07:45:14;14.38;;;10.20;;
58354;SDS011;44160;49.080;19.302;2022-12-24T07:47:40;12.70;;;9.07;;
58354;SDS011;44160;49.080;19.302;2022-12-24T07:50:06;13.15;;;7.90;;
58354;SDS011;44160;49.080;19.302;2022-12-24T07:52:32;10.75;;;6.78;;
58354;SDS011;44160;49.080;19.302;2022-12-24T07:54:58;10.73;;;6.10;;
58354;SDS011;44160;49.080;19.302;2022-12-24T07:57:24;9.73;;;6.95;;
58354;SDS011;44160;49.080;19.302;2022-12-24T07:59:50;23.10;;;13.70;;
58354;SDS011;44160;49.080;19.302;2022-12-24T08:02:16;18.98;;;12.05;;
58354;SDS011;44160;49.080;19.302;2022-12-24T08:04:42;7.90;;;6.03;;
58354;SDS011;44160;49.080;19.302;2022-12-24T08:07:08;9.73;;;7.22;;
58354;SDS011;44160;49.080;19.302;2022-12-24T08:09:35;9.45;;;6.50;;
58354;SDS011;44160;49.080;19.302;2022-12-24T08:12:01;10.55;;;7.10;;
58354;SDS011;44160;49.080;19.302;2022-12-24T08:14:28;14.55;;;8.35;;
58354;SDS011;44160;49.080;19.302;2022-12-24T08:16:55;15.90;;;8.77;;
58354;SDS011;44160;49.080;19.302;2022-12-24T08:19:21;13.00;;;8.45;;
58354;SDS011;44160;49.080;19.302;2022-12-24T08:21:47;14.00;;;8.70;;
58354;SDS011;44160;49.080;19.302;2022-12-24T08:24:13;9.27;;;6.35;;
58354;SDS011;44160;49.080;19.302;2022-12-24T08:26:39;9.35;;;6.00;;
58354;SDS011;44160;49.080;19.302;2022-12-24T08:29:06;14.70;;;8.75;;
58354;SDS011;44160;49.080;19.302;2022-12-24T08:31:32;12.52;;;8.88;;
58354;SDS011;44160;49.080;19.302;2022-12-24T08:34:05;11.00;;;7.85;;
58354;SDS011;44160;49.080;19.302;2022-12-24T08:36:32;12.65;;;8.50;;
58354;SDS011;44160;49.080;19.302;2022-12-24T08:38:58;10.13;;;7.90;;
58354;SDS011;44160;49.080;19.302;2022-12-24T08:41:27;9.70;;;6.57;;
58354;SDS011;44160;49.080;19.302;2022-12-24T08:43:53;10.55;;;6.93;;
58354;SDS011;44160;49.080;19.302;2022-12-24T08:46:19;6.93;;;5.13;;
58354;SDS011;44160;49.080;19.302;2022-12-24T08:48:46;8.73;;;6.28;;
58354;SDS011;44160;49.080;19.302;2022-12-24T08:51:12;10.27;;;7.35;;
58354;SDS011;44160;49.080;19.302;2022-12-24T08:53:38;14.52;;;7.55;;
58354;SDS011;44160;49.080;19.302;2022-12-24T08:56:05;10.75;;;7.15;;
58354;SDS011;44160;49.080;19.302;2022-12-24T08:58:32;11.02;;;7.00;;
58354;SDS011;44160;49.080;19.302;2022-12-24T09:00:58;10.63;;;6.70;;
58354;SDS011;44160;49.080;19.302;2022-12-24T09:03:24;14.10;;;8.73;;
58354;SDS011;44160;49.080;19.302;2022-12-24T09:05:50;9.75;;;6.10;;
58354;SDS011;44160;49.080;19.302;2022-12-24T09:08:17;10.60;;;5.82;;
58354;SDS011;44160;49.080;19.302;2022-12-24T09:10:44;11.07;;;6.88;;
58354;SDS011;44160;49.080;19.302;2022-12-24T09:13:10;12.30;;;6.57;;
58354;SDS011;44160;49.080;19.302;2022-12-24T09:15:36;14.00;;;7.53;;
58354;SDS011;44160;49.080;19.302;2022-12-24T09:18:02;13.57;;;7.07;;
58354;SDS011;44160;49.080;19.302;2022-12-24T09:20:28;11.43;;;6.30;;
58354;SDS011;44160;49.080;19.302;2022-12-24T09:22:55;9.88;;;6.30;;
58354;SDS011;44160;49.080;19.302;2022-12-24T09:25:21;12.45;;;8.05;;
58354;SDS011;44160;49.080;19.302;2022-12-24T09:27:47;10.68;;;7.80;;
58354;SDS011;44160;49.080;19.302;2022-12-24T09:30:13;11.30;;;8.15;;
58354;SDS011;44160;49.080;19.302;2022-12-24T09:32:39;11.73;;;7.32;;
58354;SDS011;44160;49.080;19.302;2022-12-24T09:35:05;10.18;;;7.40;;
58354;SDS011;44160;49.080;19.302;2022-12-24T09:37:31;15.95;;;12.18;;
58354;SDS011;44160;49.080;19.302;2022-12-24T09:39:57;13.82;;;9.82;;
58354;SDS011;44160;49.080;19.302;2022-12-24T09:42:47;12.80;;;9.60;;
58354;SDS011;44160;49.080;19.302;2022-12-24T09:45:21;10.00;;;6.70;;
58354;SDS011;44160;49.080;19.302;2022-12-24T09:47:49;12.23;;;7.80;;
58354;SDS011;44160;49.080;19.302;2022-12-24T09:50:22;16.20;;;12.02;;
58354;SDS011;44160;49.080;19.302;2022-12-24T09:52:51;16.27;;;10.98;;
58354;SDS011;44160;49.080;19.302;2022-12-24T09:55:28;11.63;;;7.93;;
58354;SDS011;44160;49.080;19.302;2022-12-24T09:57:55;12.85;;;9.48;;
58354;SDS011;44160;49.080;19.302;2022-12-24T10:02:49;13.98;;;8.63;;
58354;SDS011;44160;49.080;19.302;2022-12-24T10:05:16;12.63;;;8.00;;
58354;SDS011;44160;49.080;19.302;2022-12-24T10:15:42;11.18;;;6.90;;
58354;SDS011;44160;49.080;19.302;2022-12-24T10:18:15;8.57;;;4.75;;
58354;SDS011;44160;49.080;19.302;2022-12-24T10:34:50;8.98;;;4.88;;
58354;SDS011;44160;49.080;19.302;2022-12-24T10:37:25;8.60;;;4.57;;
58354;SDS011;44160;49.080;19.302;2022-12-24T10:39:52;9.35;;;4.82;;
58354;SDS011;44160;49.080;19.302;2022-12-24T10:42:19;9.73;;;5.30;;
58354;SDS011;44160;49.080;19.302;2022-12-24T10:44:54;10.90;;;5.28;;
58354;SDS011;44160;49.080;19.302;2022-12-24T10:47:21;14.82;;;6.80;;
58354;SDS011;44160;49.080;19.302;2022-12-24T10:50:05;10.35;;;5.47;;
58354;SDS011;44160;49.080;19.302;2022-12-24T10:52:36;12.80;;;6.18;;
58354;SDS011;44160;49.080;19.302;2022-12-24T10:55:08;14.02;;;8.45;;
58354;SDS011;44160;49.080;19.302;2022-12-24T10:57:38;10.70;;;6.28;;
58354;SDS011;44160;49.080;19.302;2022-12-24T11:00:05;14.35;;;6.85;;
58354;SDS011;44160;49.080;19.302;2022-12-24T11:04:58;10.57;;;5.50;;
58354;SDS011;44160;49.080;19.302;2022-12-24T11:07:25;12.65;;;6.68;;
58354;SDS011;44160;49.080;19.302;2022-12-24T11:13:02;11.02;;;6.22;;
58354;SDS011;44160;49.080;19.302;2022-12-24T11:17:38;11.52;;;7.07;;
58354;SDS011;44160;49.080;19.302;2022-12-24T11:20:05;13.35;;;6.30;;
58354;SDS011;44160;49.080;19.302;2022-12-24T11:22:32;11.27;;;6.32;;
58354;SDS011;44160;49.080;19.302;2022-12-24T11:25:00;22.42;;;9.35;;
58354;SDS011;44160;49.080;19.302;2022-12-24T11:28:09;10.10;;;5.32;;
58354;SDS011;44160;49.080;19.302;2022-12-24T11:30:26;15.82;;;7.40;;
58354;SDS011;44160;49.080;19.302;2022-12-24T11:35:25;5.32;;;3.33;;
58354;SDS011;44160;49.080;19.302;2022-12-24T11:42:59;12.18;;;5.53;;
58354;SDS011;44160;49.080;19.302;2022-12-24T11:45:26;9.73;;;5.30;;
58354;SDS011;44160;49.080;19.302;2022-12-24T11:47:53;7.65;;;3.70;;
58354;SDS011;44160;49.080;19.302;2022-12-24T12:00:51;4.13;;;2.40;;
58354;SDS011;44160;49.080;19.302;2022-12-24T12:03:25;3.75;;;2.40;;
58354;SDS011;44160;49.080;19.302;2022-12-24T12:05:53;7.57;;;2.88;;
58354;SDS011;44160;49.080;19.302;2022-12-24T12:08:20;7.10;;;3.65;;
58354;SDS011;44160;49.080;19.302;2022-12-24T12:10:47;8.30;;;3.35;;
58354;SDS011;44160;49.080;19.302;2022-12-24T12:13:16;4.57;;;3.03;;
58354;SDS011;44160;49.080;19.302;2022-12-24T12:18:31;9.38;;;2.83;;
58354;SDS011;44160;49.080;19.302;2022-12-24T12:21:00;9.02;;;2.83;;
58354;SDS011;44160;49.080;19.302;2022-12-24T12:23:29;4.88;;;2.65;;
58354;SDS011;44160;49.080;19.302;2022-12-24T12:25:59;5.10;;;2.40;;
58354;SDS011;44160;49.080;19.302;2022-12-24T12:31:10;5.60;;;3.15;;
58354;SDS011;44160;49.080;19.302;2022-12-24T12:36:04;16.27;;;6.65;;
58354;SDS011;44160;49.080;19.302;2022-12-24T12:38:31;13.18;;;6.03;;
58354;SDS011;44160;49.080;19.302;2022-12-24T12:48:59;13.23;;;6.22;;
58354;SDS011;44160;49.080;19.302;2022-12-24T12:51:37;108.38;;;51.00;;
58354;SDS011;44160;49.080;19.302;2022-12-24T12:54:29;52.10;;;19.98;;
58354;SDS011;44160;49.080;19.302;2022-12-24T12:56:52;17.63;;;7.30;;
58354;SDS011;44160;49.080;19.302;2022-12-24T12:59:23;55.08;;;14.45;;
58354;SDS011;44160;49.080;19.302;2022-12-24T13:02:11;25.63;;;9.27;;
58354;SDS011;44160;49.080;19.302;2022-12-24T13:05:05;15.30;;;5.83;;
58354;SDS011;44160;49.080;19.302;2022-12-24T13:10:30;7.47;;;3.22;;
58354;SDS011;44160;49.080;19.302;2022-12-24T13:20:28;9.32;;;4.05;;
58354;SDS011;44160;49.080;19.302;2022-12-24T13:22:57;7.85;;;3.78;;
58354;SDS011;44160;49.080;19.302;2022-12-24T13:25:34;8.70;;;4.97;;
58354;SDS011;44160;49.080;19.302;2022-12-24T13:28:14;17.23;;;5.60;;
58354;SDS011;44160;49.080;19.302;2022-12-24T13:30:40;17.08;;;6.80;;
58354;SDS011;44160;49.080;19.302;2022-12-24T13:33:10;9.05;;;4.40;;
58354;SDS011;44160;49.080;19.302;2022-12-24T13:35:37;12.45;;;3.90;;
58354;SDS011;44160;49.080;19.302;2022-12-24T13:40:54;11.25;;;4.07;;
58354;SDS011;44160;49.080;19.302;2022-12-24T13:43:20;7.80;;;4.38;;
58354;SDS011;44160;49.080;19.302;2022-12-24T13:45:48;7.78;;;3.33;;
58354;SDS011;44160;49.080;19.302;2022-12-24T13:48:24;9.15;;;2.80;;
58354;SDS011;44160;49.080;19.302;2022-12-24T13:50:52;11.18;;;3.28;;
58354;SDS011;44160;49.080;19.302;2022-12-24T14:01:33;5.55;;;2.72;;
58354;SDS011;44160;49.080;19.302;2022-12-24T14:04:01;10.45;;;3.10;;
58354;SDS011;44160;49.080;19.302;2022-12-24T14:06:41;6.28;;;3.83;;
58354;SDS011;44160;49.080;19.302;2022-12-24T14:09:19;7.45;;;3.00;;
58354;SDS011;44160;49.080;19.302;2022-12-24T14:14:41;7.05;;;3.20;;
58354;SDS011;44160;49.080;19.302;2022-12-24T14:17:11;6.15;;;3.20;;
58354;SDS011;44160;49.080;19.302;2022-12-24T14:19:43;5.57;;;3.13;;
58354;SDS011;44160;49.080;19.302;2022-12-24T14:24:38;10.13;;;4.55;;
58354;SDS011;44160;49.080;19.302;2022-12-24T14:32:19;7.10;;;3.30;;
58354;SDS011;44160;49.080;19.302;2022-12-24T14:34:45;8.90;;;3.25;;
58354;SDS011;44160;49.080;19.302;2022-12-24T14:37:11;14.27;;;4.00;;
58354;SDS011;44160;49.080;19.302;2022-12-24T14:39:40;10.18;;;4.65;;
58354;SDS011;44160;49.080;19.302;2022-12-24T14:44:40;5.55;;;4.13;;
58354;SDS011;44160;49.080;19.302;2022-12-24T14:47:17;7.10;;;3.10;;
58354;SDS011;44160;49.080;19.302;2022-12-24T14:53:13;4.13;;;2.88;;
58354;SDS011;44160;49.080;19.302;2022-12-24T15:00:41;7.32;;;3.40;;
58354;SDS011;44160;49.080;19.302;2022-12-24T15:03:14;7.83;;;3.10;;
58354;SDS011;44160;49.080;19.302;2022-12-24T15:05:40;5.03;;;2.53;;
58354;SDS011;44160;49.080;19.302;2022-12-24T15:08:08;8.10;;;3.03;;
58354;SDS011;44160;49.080;19.302;2022-12-24T15:10:36;7.97;;;2.70;;
58354;SDS011;44160;49.080;19.302;2022-12-24T15:13:04;4.63;;;2.40;;
58354;SDS011;44160;49.080;19.302;2022-12-24T15:15:30;7.05;;;3.67;;
58354;SDS011;44160;49.080;19.302;2022-12-24T15:17:57;5.90;;;4.05;;
58354;SDS011;44160;49.080;19.302;2022-12-24T15:20:24;6.10;;;3.17;;
58354;SDS011;44160;49.080;19.302;2022-12-24T15:22:52;5.70;;;3.22;;
58354;SDS011;44160;49.080;19.302;2022-12-24T15:25:20;6.45;;;3.30;;
58354;SDS011;44160;49.080;19.302;2022-12-24T15:27:47;9.40;;;3.90;;
58354;SDS011;44160;49.080;19.302;2022-12-24T15:30:14;8.13;;;4.28;;
58354;SDS011;44160;49.080;19.302;2022-12-24T15:32:40;8.55;;;4.65;;
58354;SDS011;44160;49.080;19.302;2022-12-24T15:35:28;15.35;;;7.35;;
58354;SDS011;44160;49.080;19.302;2022-12-24T15:37:52;12.57;;;7.85;;
58354;SDS011;44160;49.080;19.302;2022-12-24T15:40:19;11.48;;;6.28;;
58354;SDS011;44160;49.080;19.302;2022-12-24T15:42:46;9.65;;;6.25;;
58354;SDS011;44160;49.080;19.302;2022-12-24T15:47:47;7.10;;;4.95;;
58354;SDS011;44160;49.080;19.302;2022-12-24T15:53:12;11.95;;;5.43;;
58354;SDS011;44160;49.080;19.302;2022-12-24T15:55:40;9.85;;;5.72;;
58354;SDS011;44160;49.080;19.302;2022-12-24T15:58:16;10.00;;;5.15;;
58354;SDS011;44160;49.080;19.302;2022-12-24T16:00:58;7.13;;;4.88;;
58354;SDS011;44160;49.080;19.302;2022-12-24T16:03:24;13.88;;;5.82;;
58354;SDS011;44160;49.080;19.302;2022-12-24T16:06:01;9.30;;;5.32;;
58354;SDS011;44160;49.080;19.302;2022-12-24T16:08:28;13.45;;;5.28;;
58354;SDS011;44160;49.080;19.302;2022-12-24T16:14:11;10.20;;;4.07;;
58354;SDS011;44160;49.080;19.302;2022-12-24T16:16:41;7.05;;;4.28;;
58354;SDS011;44160;49.080;19.302;2022-12-24T16:19:20;10.90;;;5.03;;
58354;SDS011;44160;49.080;19.302;2022-12-24T16:21:48;6.60;;;4.13;;
58354;SDS011;44160;49.080;19.302;2022-12-24T16:24:23;9.73;;;5.18;;
58354;SDS011;44160;49.080;19.302;2022-12-24T16:26:50;8.98;;;4.47;;
58354;SDS011;44160;49.080;19.302;2022-12-24T16:29:16;12.35;;;4.90;;
58354;SDS011;44160;49.080;19.302;2022-12-24T16:31:50;8.57;;;3.67;;
58354;SDS011;44160;49.080;19.302;2022-12-24T16:34:17;9.13;;;4.22;;
58354;SDS011;44160;49.080;19.302;2022-12-24T16:36:44;12.88;;;4.57;;
58354;SDS011;44160;49.080;19.302;2022-12-24T16:39:14;12.00;;;6.35;;
58354;SDS011;44160;49.080;19.302;2022-12-24T16:41:53;12.23;;;6.00;;
58354;SDS011;44160;49.080;19.302;2022-12-24T16:44:39;11.38;;;6.88;;
58354;SDS011;44160;49.080;19.302;2022-12-24T16:47:06;12.10;;;5.53;;